sensor_id;sensor_type;location;lat;lon;timestamp;P1;durP1;ratioP1;P2;durP2;ratioP2
15624;SDS011;7912;51.376;6.126;2022-11-04T00:01:27;2.50;;;2.00;;
15624;SDS011;7912;51.376;6.126;2022-11-04T00:03:55;2.10;;;1.90;;
15624;SDS011;7912;51.376;6.126;2022-11-04T00:06:23;2.23;;;1.97;;
15624;SDS011;7912;51.376;6.126;2022-11-04T00:08:54;2.00;;;1.90;;
15624;SDS011;7912;51.376;6.126;2022-11-04T00:11:25;2.30;;;2.10;;
15624;SDS011;7912;51.376;6.126;2022-11-04T00:14:13;3.00;;;2.07;;
15624;SDS011;7912;51.376;6.126;2022-11-04T00:16:41;2.93;;;2.63;;
15624;SDS011;7912;51.376;6.126;2022-11-04T00:19:27;2.57;;;2.37;;
15624;SDS011;7912;51.376;6.126;2022-11-04T00:22:15;3.20;;;2.43;;
15624;SDS011;7912;51.376;6.126;2022-11-04T00:25:01;3.80;;;2.73;;
15624;SDS011;7912;51.376;6.126;2022-11-04T00:27:47;2.80;;;2.60;;
15624;SDS011;7912;51.376;6.126;2022-11-04T00:30:34;3.07;;;2.80;;
15624;SDS011;7912;51.376;6.126;2022-11-04T00:33:02;3.13;;;2.90;;
15624;SDS011;7912;51.376;6.126;2022-11-04T00:35:48;3.73;;;3.10;;
15624;SDS011;7912;51.376;6.126;2022-11-04T00:38:17;3.43;;;3.00;;
15624;SDS011;7912;51.376;6.126;2022-11-04T00:40:45;3.80;;;3.40;;
15624;SDS011;7912;51.376;6.126;2022-11-04T00:43:13;4.57;;;3.33;;
15624;SDS011;7912;51.376;6.126;2022-11-04T00:45:41;3.83;;;3.53;;
15624;SDS011;7912;51.376;6.126;2022-11-04T00:48:09;3.47;;;3.07;;
15624;SDS011;7912;51.376;6.126;2022-11-04T00:50:37;3.63;;;3.33;;
15624;SDS011;7912;51.376;6.126;2022-11-04T00:53:05;4.10;;;3.70;;
15624;SDS011;7912;51.376;6.126;2022-11-04T00:55:33;4.00;;;3.37;;
15624;SDS011;7912;51.376;6.126;2022-11-04T00:58:01;3.93;;;3.57;;
15624;SDS011;7912;51.376;6.126;2022-11-04T01:00:29;5.37;;;3.60;;
15624;SDS011;7912;51.376;6.126;2022-11-04T01:02:57;4.70;;;3.77;;
15624;SDS011;7912;51.376;6.126;2022-11-04T01:05:26;4.17;;;3.77;;
15624;SDS011;7912;51.376;6.126;2022-11-04T01:07:55;3.87;;;3.57;;
15624;SDS011;7912;51.376;6.126;2022-11-04T01:10:22;4.30;;;3.90;;
15624;SDS011;7912;51.376;6.126;2022-11-04T01:12:51;4.03;;;3.63;;
15624;SDS011;7912;51.376;6.126;2022-11-04T01:15:19;4.77;;;3.77;;
15624;SDS011;7912;51.376;6.126;2022-11-04T01:17:46;4.40;;;4.00;;
15624;SDS011;7912;51.376;6.126;2022-11-04T01:20:13;3.77;;;3.47;;
15624;SDS011;7912;51.376;6.126;2022-11-04T01:22:41;4.30;;;3.63;;
15624;SDS011;7912;51.376;6.126;2022-11-04T01:25:09;4.10;;;3.50;;
15624;SDS011;7912;51.376;6.126;2022-11-04T01:27:36;4.23;;;3.70;;
15624;SDS011;7912;51.376;6.126;2022-11-04T01:30:04;4.53;;;3.77;;
15624;SDS011;7912;51.376;6.126;2022-11-04T01:32:33;3.70;;;3.40;;
15624;SDS011;7912;51.376;6.126;2022-11-04T01:35:00;4.27;;;3.73;;
15624;SDS011;7912;51.376;6.126;2022-11-04T01:37:28;3.47;;;3.17;;
15624;SDS011;7912;51.376;6.126;2022-11-04T01:39:57;4.33;;;3.30;;
15624;SDS011;7912;51.376;6.126;2022-11-04T01:42:25;3.67;;;3.37;;
15624;SDS011;7912;51.376;6.126;2022-11-04T01:44:54;4.57;;;3.20;;
15624;SDS011;7912;51.376;6.126;2022-11-04T01:50:08;4.20;;;2.80;;
15624;SDS011;7912;51.376;6.126;2022-11-04T01:56:06;3.03;;;2.70;;
15624;SDS011;7912;51.376;6.126;2022-11-04T01:58:43;2.97;;;2.40;;
15624;SDS011;7912;51.376;6.126;2022-11-04T02:01:18;3.23;;;2.43;;
15624;SDS011;7912;51.376;6.126;2022-11-04T02:03:47;2.70;;;2.20;;
15624;SDS011;7912;51.376;6.126;2022-11-04T02:06:47;4.57;;;2.40;;
15624;SDS011;7912;51.376;6.126;2022-11-04T02:09:18;4.43;;;2.37;;
15624;SDS011;7912;51.376;6.126;2022-11-04T02:11:47;3.40;;;2.07;;
15624;SDS011;7912;51.376;6.126;2022-11-04T02:14:33;3.80;;;2.20;;
15624;SDS011;7912;51.376;6.126;2022-11-04T02:17:14;2.80;;;2.00;;
15624;SDS011;7912;51.376;6.126;2022-11-04T02:29:33;4.30;;;2.00;;
15624;SDS011;7912;51.376;6.126;2022-11-04T02:32:49;3.70;;;2.07;;
15624;SDS011;7912;51.376;6.126;2022-11-04T02:35:25;3.47;;;1.90;;
15624;SDS011;7912;51.376;6.126;2022-11-04T02:41:14;5.07;;;2.10;;
15624;SDS011;7912;51.376;6.126;2022-11-04T02:46:39;2.93;;;1.80;;
15624;SDS011;7912;51.376;6.126;2022-11-04T02:49:26;8.73;;;2.47;;
15624;SDS011;7912;51.376;6.126;2022-11-04T02:52:13;2.97;;;1.93;;
15624;SDS011;7912;51.376;6.126;2022-11-04T02:54:59;2.77;;;2.00;;
15624;SDS011;7912;51.376;6.126;2022-11-04T02:57:44;4.23;;;2.40;;
15624;SDS011;7912;51.376;6.126;2022-11-04T03:00:16;3.47;;;2.00;;
15624;SDS011;7912;51.376;6.126;2022-11-04T03:02:51;3.93;;;2.50;;
15624;SDS011;7912;51.376;6.126;2022-11-04T03:05:32;4.20;;;2.00;;
15624;SDS011;7912;51.376;6.126;2022-11-04T03:08:06;3.97;;;2.10;;
15624;SDS011;7912;51.376;6.126;2022-11-04T03:10:42;3.43;;;2.07;;
15624;SDS011;7912;51.376;6.126;2022-11-04T03:13:33;3.20;;;2.17;;
15624;SDS011;7912;51.376;6.126;2022-11-04T03:20:02;3.47;;;1.97;;
15624;SDS011;7912;51.376;6.126;2022-11-04T03:22:41;3.53;;;1.90;;
15624;SDS011;7912;51.376;6.126;2022-11-04T03:25:09;3.70;;;2.00;;
15624;SDS011;7912;51.376;6.126;2022-11-04T03:30:41;4.27;;;1.73;;
15624;SDS011;7912;51.376;6.126;2022-11-04T03:35:58;3.40;;;1.83;;
15624;SDS011;7912;51.376;6.126;2022-11-04T03:38:28;6.47;;;2.30;;
15624;SDS011;7912;51.376;6.126;2022-11-04T03:40:57;4.13;;;1.80;;
15624;SDS011;7912;51.376;6.126;2022-11-04T03:43:34;5.23;;;1.90;;
15624;SDS011;7912;51.376;6.126;2022-11-04T03:46:05;2.47;;;1.63;;
15624;SDS011;7912;51.376;6.126;2022-11-04T03:48:33;5.00;;;2.17;;
15624;SDS011;7912;51.376;6.126;2022-11-04T03:51:02;3.43;;;1.73;;
15624;SDS011;7912;51.376;6.126;2022-11-04T03:53:29;4.53;;;1.70;;
15624;SDS011;7912;51.376;6.126;2022-11-04T03:56:02;4.03;;;2.20;;
15624;SDS011;7912;51.376;6.126;2022-11-04T04:05:02;3.77;;;2.40;;
15624;SDS011;7912;51.376;6.126;2022-11-04T04:17:33;4.17;;;2.60;;
15624;SDS011;7912;51.376;6.126;2022-11-04T04:20:13;4.43;;;2.63;;
15624;SDS011;7912;51.376;6.126;2022-11-04T04:22:47;6.67;;;2.50;;
15624;SDS011;7912;51.376;6.126;2022-11-04T04:25:51;4.03;;;2.33;;
15624;SDS011;7912;51.376;6.126;2022-11-04T04:28:42;6.83;;;2.67;;
15624;SDS011;7912;51.376;6.126;2022-11-04T04:31:14;4.13;;;2.60;;
15624;SDS011;7912;51.376;6.126;2022-11-04T04:34:05;5.80;;;2.60;;
15624;SDS011;7912;51.376;6.126;2022-11-04T04:36:37;4.73;;;2.63;;
15624;SDS011;7912;51.376;6.126;2022-11-04T04:39:16;6.37;;;2.43;;
15624;SDS011;7912;51.376;6.126;2022-11-04T04:42:07;6.40;;;2.50;;
15624;SDS011;7912;51.376;6.126;2022-11-04T04:44:55;6.43;;;2.50;;
15624;SDS011;7912;51.376;6.126;2022-11-04T04:48:03;4.40;;;2.60;;
15624;SDS011;7912;51.376;6.126;2022-11-04T04:50:26;5.97;;;2.53;;
15624;SDS011;7912;51.376;6.126;2022-11-04T04:53:00;5.23;;;2.40;;
15624;SDS011;7912;51.376;6.126;2022-11-04T04:55:30;3.20;;;2.07;;
15624;SDS011;7912;51.376;6.126;2022-11-04T04:58:03;5.60;;;2.70;;
15624;SDS011;7912;51.376;6.126;2022-11-04T05:00:32;5.90;;;2.80;;
15624;SDS011;7912;51.376;6.126;2022-11-04T05:03:00;5.67;;;2.43;;
15624;SDS011;7912;51.376;6.126;2022-11-04T05:05:28;4.70;;;2.87;;
15624;SDS011;7912;51.376;6.126;2022-11-04T05:08:02;6.27;;;2.60;;
15624;SDS011;7912;51.376;6.126;2022-11-04T05:10:36;5.43;;;2.93;;
15624;SDS011;7912;51.376;6.126;2022-11-04T05:13:04;4.87;;;2.70;;
15624;SDS011;7912;51.376;6.126;2022-11-04T05:15:56;4.70;;;2.60;;
15624;SDS011;7912;51.376;6.126;2022-11-04T05:18:30;3.13;;;2.37;;
15624;SDS011;7912;51.376;6.126;2022-11-04T05:21:01;4.47;;;2.50;;
15624;SDS011;7912;51.376;6.126;2022-11-04T05:23:32;4.47;;;2.50;;
15624;SDS011;7912;51.376;6.126;2022-11-04T05:26:03;5.87;;;2.43;;
15624;SDS011;7912;51.376;6.126;2022-11-04T05:28:31;6.30;;;2.83;;
15624;SDS011;7912;51.376;6.126;2022-11-04T05:31:02;6.43;;;2.97;;
15624;SDS011;7912;51.376;6.126;2022-11-04T05:33:31;3.87;;;2.73;;
15624;SDS011;7912;51.376;6.126;2022-11-04T05:36:06;3.03;;;2.57;;
15624;SDS011;7912;51.376;6.126;2022-11-04T05:38:39;5.30;;;2.90;;
15624;SDS011;7912;51.376;6.126;2022-11-04T05:41:07;6.40;;;3.30;;
15624;SDS011;7912;51.376;6.126;2022-11-04T05:43:37;4.43;;;3.30;;
15624;SDS011;7912;51.376;6.126;2022-11-04T05:46:05;7.43;;;3.10;;
15624;SDS011;7912;51.376;6.126;2022-11-04T05:48:32;5.07;;;3.00;;
15624;SDS011;7912;51.376;6.126;2022-11-04T05:51:06;6.17;;;3.23;;
15624;SDS011;7912;51.376;6.126;2022-11-04T05:53:33;4.83;;;3.63;;
15624;SDS011;7912;51.376;6.126;2022-11-04T05:56:00;6.80;;;3.90;;
15624;SDS011;7912;51.376;6.126;2022-11-04T05:58:28;7.17;;;4.00;;
15624;SDS011;7912;51.376;6.126;2022-11-04T06:04:03;6.17;;;3.70;;
15624;SDS011;7912;51.376;6.126;2022-11-04T06:06:33;6.53;;;4.00;;
15624;SDS011;7912;51.376;6.126;2022-11-04T06:09:02;4.83;;;3.63;;
15624;SDS011;7912;51.376;6.126;2022-11-04T06:11:30;5.30;;;3.30;;
15624;SDS011;7912;51.376;6.126;2022-11-04T06:13:59;6.87;;;4.00;;
15624;SDS011;7912;51.376;6.126;2022-11-04T06:16:27;4.87;;;3.63;;
15624;SDS011;7912;51.376;6.126;2022-11-04T06:18:55;6.33;;;3.70;;
15624;SDS011;7912;51.376;6.126;2022-11-04T06:21:31;8.20;;;4.30;;
15624;SDS011;7912;51.376;6.126;2022-11-04T06:23:59;6.60;;;3.67;;
15624;SDS011;7912;51.376;6.126;2022-11-04T06:26:28;6.07;;;3.87;;
15624;SDS011;7912;51.376;6.126;2022-11-04T06:28:58;6.10;;;3.60;;
15624;SDS011;7912;51.376;6.126;2022-11-04T06:31:26;7.03;;;3.57;;
15624;SDS011;7912;51.376;6.126;2022-11-04T06:36:43;6.60;;;3.43;;
15624;SDS011;7912;51.376;6.126;2022-11-04T06:39:11;9.40;;;3.57;;
15624;SDS011;7912;51.376;6.126;2022-11-04T06:41:39;7.50;;;3.80;;
15624;SDS011;7912;51.376;6.126;2022-11-04T06:44:09;5.70;;;3.20;;
15624;SDS011;7912;51.376;6.126;2022-11-04T06:46:44;4.27;;;2.80;;
15624;SDS011;7912;51.376;6.126;2022-11-04T06:49:17;6.07;;;2.90;;
15624;SDS011;7912;51.376;6.126;2022-11-04T06:52:00;4.83;;;2.87;;
15624;SDS011;7912;51.376;6.126;2022-11-04T06:57:55;6.07;;;2.93;;
15624;SDS011;7912;51.376;6.126;2022-11-04T07:00:26;6.33;;;2.77;;
15624;SDS011;7912;51.376;6.126;2022-11-04T07:03:18;6.33;;;3.10;;
15624;SDS011;7912;51.376;6.126;2022-11-04T07:05:49;7.67;;;3.00;;
15624;SDS011;7912;51.376;6.126;2022-11-04T07:08:17;6.03;;;2.80;;
15624;SDS011;7912;51.376;6.126;2022-11-04T07:10:45;4.80;;;2.73;;
15624;SDS011;7912;51.376;6.126;2022-11-04T07:13:13;4.63;;;2.83;;
15624;SDS011;7912;51.376;6.126;2022-11-04T07:15:43;5.17;;;3.30;;
15624;SDS011;7912;51.376;6.126;2022-11-04T07:18:10;6.33;;;3.50;;
15624;SDS011;7912;51.376;6.126;2022-11-04T07:20:39;4.80;;;2.80;;
15624;SDS011;7912;51.376;6.126;2022-11-04T07:23:07;4.40;;;2.50;;
15624;SDS011;7912;51.376;6.126;2022-11-04T07:25:35;4.47;;;2.40;;
15624;SDS011;7912;51.376;6.126;2022-11-04T07:28:03;5.70;;;2.57;;
15624;SDS011;7912;51.376;6.126;2022-11-04T07:30:33;4.73;;;2.73;;
15624;SDS011;7912;51.376;6.126;2022-11-04T07:33:01;5.57;;;2.77;;
15624;SDS011;7912;51.376;6.126;2022-11-04T07:35:34;7.27;;;3.20;;
15624;SDS011;7912;51.376;6.126;2022-11-04T07:38:03;6.03;;;2.63;;
15624;SDS011;7912;51.376;6.126;2022-11-04T07:40:32;5.27;;;2.57;;
15624;SDS011;7912;51.376;6.126;2022-11-04T07:43:00;4.47;;;2.60;;
15624;SDS011;7912;51.376;6.126;2022-11-04T07:45:28;3.40;;;2.30;;
15624;SDS011;7912;51.376;6.126;2022-11-04T07:47:56;3.30;;;2.20;;
15624;SDS011;7912;51.376;6.126;2022-11-04T07:50:24;5.50;;;3.07;;
15624;SDS011;7912;51.376;6.126;2022-11-04T07:56:41;4.23;;;2.40;;
15624;SDS011;7912;51.376;6.126;2022-11-04T07:59:15;5.27;;;2.50;;
15624;SDS011;7912;51.376;6.126;2022-11-04T08:01:43;6.30;;;2.70;;
15624;SDS011;7912;51.376;6.126;2022-11-04T08:04:11;4.00;;;2.53;;
15624;SDS011;7912;51.376;6.126;2022-11-04T08:06:41;4.23;;;2.43;;
15624;SDS011;7912;51.376;6.126;2022-11-04T08:09:09;5.50;;;2.70;;
15624;SDS011;7912;51.376;6.126;2022-11-04T08:11:36;5.67;;;3.27;;
15624;SDS011;7912;51.376;6.126;2022-11-04T08:14:05;10.20;;;4.30;;
15624;SDS011;7912;51.376;6.126;2022-11-04T08:16:33;6.67;;;3.43;;
15624;SDS011;7912;51.376;6.126;2022-11-04T08:19:03;4.93;;;2.90;;
15624;SDS011;7912;51.376;6.126;2022-11-04T08:21:32;5.67;;;2.43;;
15624;SDS011;7912;51.376;6.126;2022-11-04T08:24:07;6.70;;;2.93;;
15624;SDS011;7912;51.376;6.126;2022-11-04T08:29:25;4.90;;;2.87;;
15624;SDS011;7912;51.376;6.126;2022-11-04T08:32:23;6.17;;;2.37;;
15624;SDS011;7912;51.376;6.126;2022-11-04T08:34:51;7.20;;;2.70;;
15624;SDS011;7912;51.376;6.126;2022-11-04T08:37:19;5.80;;;2.57;;
15624;SDS011;7912;51.376;6.126;2022-11-04T08:39:49;4.57;;;2.30;;
15624;SDS011;7912;51.376;6.126;2022-11-04T08:42:17;5.00;;;2.67;;
15624;SDS011;7912;51.376;6.126;2022-11-04T08:44:45;4.17;;;2.47;;
15624;SDS011;7912;51.376;6.126;2022-11-04T08:47:17;4.63;;;2.30;;
15624;SDS011;7912;51.376;6.126;2022-11-04T08:49:45;4.17;;;2.20;;
15624;SDS011;7912;51.376;6.126;2022-11-04T08:52:14;4.83;;;2.40;;
15624;SDS011;7912;51.376;6.126;2022-11-04T08:54:52;9.93;;;2.53;;
15624;SDS011;7912;51.376;6.126;2022-11-04T08:57:22;5.40;;;2.63;;
15624;SDS011;7912;51.376;6.126;2022-11-04T08:59:51;5.30;;;2.70;;
15624;SDS011;7912;51.376;6.126;2022-11-04T09:02:18;7.23;;;2.80;;
15624;SDS011;7912;51.376;6.126;2022-11-04T09:04:50;3.80;;;2.63;;
15624;SDS011;7912;51.376;6.126;2022-11-04T09:07:23;5.50;;;2.60;;
15624;SDS011;7912;51.376;6.126;2022-11-04T09:09:52;5.43;;;2.27;;
15624;SDS011;7912;51.376;6.126;2022-11-04T09:12:21;6.67;;;2.67;;
15624;SDS011;7912;51.376;6.126;2022-11-04T09:14:49;6.37;;;2.57;;
15624;SDS011;7912;51.376;6.126;2022-11-04T09:17:19;5.87;;;2.50;;
15624;SDS011;7912;51.376;6.126;2022-11-04T09:19:46;3.70;;;2.30;;
15624;SDS011;7912;51.376;6.126;2022-11-04T09:22:15;5.17;;;2.40;;
15624;SDS011;7912;51.376;6.126;2022-11-04T09:24:43;4.67;;;2.23;;
15624;SDS011;7912;51.376;6.126;2022-11-04T09:27:11;4.17;;;2.37;;
15624;SDS011;7912;51.376;6.126;2022-11-04T09:29:44;6.67;;;2.53;;
15624;SDS011;7912;51.376;6.126;2022-11-04T09:32:12;4.03;;;2.13;;
15624;SDS011;7912;51.376;6.126;2022-11-04T09:34:41;6.87;;;2.73;;
15624;SDS011;7912;51.376;6.126;2022-11-04T09:37:25;5.90;;;2.60;;
15624;SDS011;7912;51.376;6.126;2022-11-04T09:39:54;4.13;;;2.37;;
15624;SDS011;7912;51.376;6.126;2022-11-04T09:42:32;4.03;;;2.30;;
15624;SDS011;7912;51.376;6.126;2022-11-04T09:45:36;4.03;;;2.40;;
15624;SDS011;7912;51.376;6.126;2022-11-04T09:48:11;3.17;;;2.17;;
15624;SDS011;7912;51.376;6.126;2022-11-04T09:51:02;5.07;;;2.50;;
15624;SDS011;7912;51.376;6.126;2022-11-04T09:53:47;4.57;;;2.30;;
15624;SDS011;7912;51.376;6.126;2022-11-04T09:56:24;6.07;;;3.10;;
15624;SDS011;7912;51.376;6.126;2022-11-04T09:59:04;5.77;;;3.07;;
15624;SDS011;7912;51.376;6.126;2022-11-04T10:01:57;5.13;;;3.07;;
15624;SDS011;7912;51.376;6.126;2022-11-04T10:11:19;3.17;;;1.90;;
15624;SDS011;7912;51.376;6.126;2022-11-04T10:22:58;3.93;;;2.30;;
15624;SDS011;7912;51.376;6.126;2022-11-04T10:26:06;4.80;;;2.50;;
15624;SDS011;7912;51.376;6.126;2022-11-04T10:28:48;5.30;;;2.77;;
15624;SDS011;7912;51.376;6.126;2022-11-04T10:31:28;3.50;;;2.53;;
15624;SDS011;7912;51.376;6.126;2022-11-04T10:33:58;4.87;;;2.60;;
15624;SDS011;7912;51.376;6.126;2022-11-04T10:36:34;4.37;;;2.47;;
15624;SDS011;7912;51.376;6.126;2022-11-04T10:39:12;4.47;;;2.70;;
15624;SDS011;7912;51.376;6.126;2022-11-04T10:41:54;4.47;;;2.20;;
15624;SDS011;7912;51.376;6.126;2022-11-04T10:44:25;3.70;;;2.27;;
15624;SDS011;7912;51.376;6.126;2022-11-04T10:47:01;5.33;;;2.47;;
15624;SDS011;7912;51.376;6.126;2022-11-04T10:49:48;5.20;;;2.20;;
15624;SDS011;7912;51.376;6.126;2022-11-04T10:53:01;6.77;;;2.20;;
15624;SDS011;7912;51.376;6.126;2022-11-04T10:55:58;5.03;;;1.93;;
15624;SDS011;7912;51.376;6.126;2022-11-04T10:58:54;5.07;;;2.13;;
15624;SDS011;7912;51.376;6.126;2022-11-04T11:01:25;4.30;;;2.20;;
15624;SDS011;7912;51.376;6.126;2022-11-04T11:03:58;5.77;;;2.43;;
15624;SDS011;7912;51.376;6.126;2022-11-04T11:06:34;4.70;;;2.40;;
15624;SDS011;7912;51.376;6.126;2022-11-04T11:11:48;6.00;;;2.30;;
15624;SDS011;7912;51.376;6.126;2022-11-04T11:14:30;4.80;;;2.43;;
15624;SDS011;7912;51.376;6.126;2022-11-04T11:17:15;5.37;;;2.17;;
15624;SDS011;7912;51.376;6.126;2022-11-04T11:20:00;4.13;;;2.30;;
15624;SDS011;7912;51.376;6.126;2022-11-04T11:22:45;6.00;;;2.63;;
15624;SDS011;7912;51.376;6.126;2022-11-04T11:30:53;5.67;;;3.20;;
15624;SDS011;7912;51.376;6.126;2022-11-04T11:33:39;6.03;;;2.60;;
15624;SDS011;7912;51.376;6.126;2022-11-04T11:36:15;6.20;;;3.00;;
15624;SDS011;7912;51.376;6.126;2022-11-04T11:41:32;4.13;;;2.50;;
15624;SDS011;7912;51.376;6.126;2022-11-04T11:50:04;7.63;;;3.30;;
15624;SDS011;7912;51.376;6.126;2022-11-04T11:52:47;6.17;;;2.80;;
15624;SDS011;7912;51.376;6.126;2022-11-04T12:01:39;5.03;;;2.97;;
15624;SDS011;7912;51.376;6.126;2022-11-04T12:04:12;4.90;;;2.53;;
15624;SDS011;7912;51.376;6.126;2022-11-04T12:21:45;5.27;;;3.40;;
15624;SDS011;7912;51.376;6.126;2022-11-04T12:27:08;4.87;;;3.03;;
15624;SDS011;7912;51.376;6.126;2022-11-04T12:29:49;4.40;;;2.93;;
15624;SDS011;7912;51.376;6.126;2022-11-04T12:35:25;5.57;;;3.20;;
15624;SDS011;7912;51.376;6.126;2022-11-04T12:38:02;5.23;;;3.13;;
15624;SDS011;7912;51.376;6.126;2022-11-04T12:41:13;4.67;;;2.70;;
15624;SDS011;7912;51.376;6.126;2022-11-04T12:47:38;4.67;;;2.50;;
15624;SDS011;7912;51.376;6.126;2022-11-04T12:52:55;4.23;;;2.50;;
15624;SDS011;7912;51.376;6.126;2022-11-04T13:01:18;5.30;;;2.37;;
15624;SDS011;7912;51.376;6.126;2022-11-04T13:06:48;4.23;;;2.00;;
15624;SDS011;7912;51.376;6.126;2022-11-04T13:09:35;4.33;;;2.40;;
15624;SDS011;7912;51.376;6.126;2022-11-04T13:12:22;6.73;;;2.80;;
15624;SDS011;7912;51.376;6.126;2022-11-04T13:15:01;4.60;;;3.40;;
15624;SDS011;7912;51.376;6.126;2022-11-04T13:27:49;6.57;;;3.33;;
15624;SDS011;7912;51.376;6.126;2022-11-04T13:36:31;7.33;;;3.40;;
15624;SDS011;7912;51.376;6.126;2022-11-04T13:39:26;5.27;;;3.27;;
15624;SDS011;7912;51.376;6.126;2022-11-04T13:45:17;6.30;;;3.57;;
15624;SDS011;7912;51.376;6.126;2022-11-04T13:47:51;7.73;;;3.70;;
15624;SDS011;7912;51.376;6.126;2022-11-04T13:53:07;8.53;;;3.83;;
15624;SDS011;7912;51.376;6.126;2022-11-04T13:55:47;5.37;;;3.80;;
15624;SDS011;7912;51.376;6.126;2022-11-04T13:58:19;9.23;;;4.63;;
15624;SDS011;7912;51.376;6.126;2022-11-04T14:01:09;9.10;;;4.60;;
15624;SDS011;7912;51.376;6.126;2022-11-04T14:03:50;7.37;;;4.27;;
15624;SDS011;7912;51.376;6.126;2022-11-04T14:06:53;6.20;;;4.57;;
15624;SDS011;7912;51.376;6.126;2022-11-04T14:14:39;7.20;;;4.60;;
15624;SDS011;7912;51.376;6.126;2022-11-04T14:20:24;9.07;;;5.30;;
15624;SDS011;7912;51.376;6.126;2022-11-04T14:22:59;8.90;;;5.23;;
15624;SDS011;7912;51.376;6.126;2022-11-04T14:25:38;8.47;;;5.87;;
15624;SDS011;7912;51.376;6.126;2022-11-04T14:30:42;9.93;;;5.60;;
15624;SDS011;7912;51.376;6.126;2022-11-04T14:39:17;9.17;;;5.30;;
15624;SDS011;7912;51.376;6.126;2022-11-04T14:44:07;8.93;;;6.20;;
15624;SDS011;7912;51.376;6.126;2022-11-04T14:46:54;6.60;;;4.97;;
15624;SDS011;7912;51.376;6.126;2022-11-04T14:55:13;5.77;;;4.47;;
15624;SDS011;7912;51.376;6.126;2022-11-04T14:58:19;8.23;;;5.70;;
15624;SDS011;7912;51.376;6.126;2022-11-04T15:01:00;5.33;;;4.70;;
15624;SDS011;7912;51.376;6.126;2022-11-04T15:03:34;7.63;;;5.67;;
15624;SDS011;7912;51.376;6.126;2022-11-04T15:06:26;10.60;;;6.53;;
15624;SDS011;7912;51.376;6.126;2022-11-04T15:09:22;9.50;;;5.87;;
15624;SDS011;7912;51.376;6.126;2022-11-04T15:12:17;7.97;;;6.00;;
15624;SDS011;7912;51.376;6.126;2022-11-04T15:15:24;9.67;;;6.67;;
15624;SDS011;7912;51.376;6.126;2022-11-04T15:17:56;8.23;;;6.53;;
15624;SDS011;7912;51.376;6.126;2022-11-04T15:20:34;10.07;;;7.13;;
15624;SDS011;7912;51.376;6.126;2022-11-04T15:23:11;13.17;;;7.63;;
15624;SDS011;7912;51.376;6.126;2022-11-04T15:25:46;8.70;;;6.67;;
15624;SDS011;7912;51.376;6.126;2022-11-04T15:28:20;8.77;;;7.10;;
15624;SDS011;7912;51.376;6.126;2022-11-04T15:33:37;10.43;;;8.10;;
15624;SDS011;7912;51.376;6.126;2022-11-04T15:36:15;11.20;;;7.10;;
15624;SDS011;7912;51.376;6.126;2022-11-04T15:38:55;8.80;;;7.33;;
15624;SDS011;7912;51.376;6.126;2022-11-04T15:41:29;8.43;;;7.17;;
15624;SDS011;7912;51.376;6.126;2022-11-04T15:44:19;14.17;;;8.77;;
15624;SDS011;7912;51.376;6.126;2022-11-04T15:46:53;11.33;;;7.97;;
15624;SDS011;7912;51.376;6.126;2022-11-04T15:49:30;10.90;;;7.90;;
15624;SDS011;7912;51.376;6.126;2022-11-04T15:59:37;11.13;;;8.73;;
15624;SDS011;7912;51.376;6.126;2022-11-04T16:07:42;12.13;;;9.63;;
15624;SDS011;7912;51.376;6.126;2022-11-04T16:10:23;12.20;;;10.43;;
15624;SDS011;7912;51.376;6.126;2022-11-04T16:15:48;11.57;;;10.00;;
15624;SDS011;7912;51.376;6.126;2022-11-04T16:24:04;11.53;;;10.37;;
15624;SDS011;7912;51.376;6.126;2022-11-04T16:26:36;10.97;;;9.70;;
15624;SDS011;7912;51.376;6.126;2022-11-04T16:34:34;13.27;;;10.83;;
15624;SDS011;7912;51.376;6.126;2022-11-04T16:37:02;14.17;;;11.50;;
15624;SDS011;7912;51.376;6.126;2022-11-04T16:39:29;12.77;;;11.03;;
15624;SDS011;7912;51.376;6.126;2022-11-04T16:41:57;12.57;;;10.90;;
15624;SDS011;7912;51.376;6.126;2022-11-04T16:44:25;12.93;;;11.70;;
15624;SDS011;7912;51.376;6.126;2022-11-04T16:46:53;14.17;;;10.93;;
15624;SDS011;7912;51.376;6.126;2022-11-04T16:49:22;13.17;;;11.10;;
15624;SDS011;7912;51.376;6.126;2022-11-04T16:55:14;12.83;;;10.47;;
15624;SDS011;7912;51.376;6.126;2022-11-04T16:57:46;11.37;;;10.03;;
15624;SDS011;7912;51.376;6.126;2022-11-04T17:00:25;13.63;;;10.93;;
15624;SDS011;7912;51.376;6.126;2022-11-04T17:02:53;10.10;;;9.17;;
15624;SDS011;7912;51.376;6.126;2022-11-04T17:05:21;12.63;;;10.00;;
15624;SDS011;7912;51.376;6.126;2022-11-04T17:07:48;11.43;;;10.27;;
15624;SDS011;7912;51.376;6.126;2022-11-04T17:10:24;14.23;;;11.40;;
15624;SDS011;7912;51.376;6.126;2022-11-04T17:12:54;14.27;;;11.67;;
15624;SDS011;7912;51.376;6.126;2022-11-04T17:15:21;15.13;;;12.30;;
15624;SDS011;7912;51.376;6.126;2022-11-04T17:17:49;12.57;;;11.27;;
15624;SDS011;7912;51.376;6.126;2022-11-04T17:20:19;14.37;;;12.67;;
15624;SDS011;7912;51.376;6.126;2022-11-04T17:22:48;13.43;;;12.10;;
15624;SDS011;7912;51.376;6.126;2022-11-04T17:25:20;13.13;;;11.93;;
15624;SDS011;7912;51.376;6.126;2022-11-04T17:27:50;13.03;;;11.57;;
15624;SDS011;7912;51.376;6.126;2022-11-04T17:30:20;13.53;;;12.13;;
15624;SDS011;7912;51.376;6.126;2022-11-04T17:32:51;12.67;;;11.47;;
15624;SDS011;7912;51.376;6.126;2022-11-04T17:35:19;12.27;;;11.17;;
15624;SDS011;7912;51.376;6.126;2022-11-04T17:37:51;14.73;;;13.20;;
15624;SDS011;7912;51.376;6.126;2022-11-04T17:40:21;13.80;;;11.93;;
15624;SDS011;7912;51.376;6.126;2022-11-04T17:42:50;14.53;;;12.93;;
15624;SDS011;7912;51.376;6.126;2022-11-04T17:45:38;16.37;;;14.20;;
15624;SDS011;7912;51.376;6.126;2022-11-04T17:48:08;13.60;;;12.30;;
15624;SDS011;7912;51.376;6.126;2022-11-04T17:50:37;15.77;;;14.17;;
15624;SDS011;7912;51.376;6.126;2022-11-04T17:53:08;15.37;;;13.63;;
15624;SDS011;7912;51.376;6.126;2022-11-04T17:55:38;16.07;;;14.40;;
15624;SDS011;7912;51.376;6.126;2022-11-04T17:58:06;15.83;;;14.13;;
15624;SDS011;7912;51.376;6.126;2022-11-04T18:00:35;19.70;;;15.60;;
15624;SDS011;7912;51.376;6.126;2022-11-04T18:03:03;15.47;;;13.57;;
15624;SDS011;7912;51.376;6.126;2022-11-04T18:05:32;17.03;;;14.40;;
15624;SDS011;7912;51.376;6.126;2022-11-04T18:08:01;16.60;;;14.73;;
15624;SDS011;7912;51.376;6.126;2022-11-04T18:10:29;17.47;;;14.23;;
15624;SDS011;7912;51.376;6.126;2022-11-04T18:12:57;17.23;;;14.07;;
15624;SDS011;7912;51.376;6.126;2022-11-04T18:15:28;16.27;;;14.57;;
15624;SDS011;7912;51.376;6.126;2022-11-04T18:17:57;15.13;;;13.50;;
15624;SDS011;7912;51.376;6.126;2022-11-04T18:20:25;18.17;;;14.93;;
15624;SDS011;7912;51.376;6.126;2022-11-04T18:26:37;14.87;;;13.27;;
15624;SDS011;7912;51.376;6.126;2022-11-04T18:29:07;14.50;;;12.80;;
15624;SDS011;7912;51.376;6.126;2022-11-04T18:31:36;13.90;;;12.47;;
15624;SDS011;7912;51.376;6.126;2022-11-04T18:34:14;15.27;;;13.13;;
15624;SDS011;7912;51.376;6.126;2022-11-04T18:36:46;11.90;;;10.67;;
15624;SDS011;7912;51.376;6.126;2022-11-04T18:39:17;16.60;;;12.47;;
15624;SDS011;7912;51.376;6.126;2022-11-04T18:41:45;17.13;;;14.77;;
15624;SDS011;7912;51.376;6.126;2022-11-04T18:44:15;13.10;;;10.20;;
15624;SDS011;7912;51.376;6.126;2022-11-04T18:46:46;11.37;;;9.00;;
15624;SDS011;7912;51.376;6.126;2022-11-04T18:49:16;9.20;;;8.30;;
15624;SDS011;7912;51.376;6.126;2022-11-04T18:51:46;10.93;;;8.87;;
15624;SDS011;7912;51.376;6.126;2022-11-04T18:54:14;10.53;;;9.43;;
15624;SDS011;7912;51.376;6.126;2022-11-04T18:56:42;11.77;;;10.57;;
15624;SDS011;7912;51.376;6.126;2022-11-04T18:59:12;9.67;;;8.67;;
15624;SDS011;7912;51.376;6.126;2022-11-04T19:01:42;9.70;;;8.00;;
15624;SDS011;7912;51.376;6.126;2022-11-04T19:04:11;12.30;;;7.63;;
15624;SDS011;7912;51.376;6.126;2022-11-04T19:06:40;11.73;;;8.33;;
15624;SDS011;7912;51.376;6.126;2022-11-04T19:09:10;9.93;;;8.00;;
15624;SDS011;7912;51.376;6.126;2022-11-04T19:12:01;8.27;;;7.27;;
15624;SDS011;7912;51.376;6.126;2022-11-04T19:14:48;9.50;;;7.77;;
15624;SDS011;7912;51.376;6.126;2022-11-04T19:17:16;9.63;;;8.07;;
15624;SDS011;7912;51.376;6.126;2022-11-04T19:19:44;9.47;;;7.30;;
15624;SDS011;7912;51.376;6.126;2022-11-04T19:22:12;8.80;;;7.47;;
15624;SDS011;7912;51.376;6.126;2022-11-04T19:24:40;9.87;;;8.73;;